sensor_id;sensor_type;location;lat;lon;timestamp;temperature;humidity
38428;DHT22;24211;49.980;19.776;2023-03-01T00:01:45;1.80;99.90
38428;DHT22;24211;49.980;19.776;2023-03-01T00:04:12;1.80;99.90
38428;DHT22;24211;49.980;19.776;2023-03-01T00:06:39;1.80;99.90
38428;DHT22;24211;49.980;19.776;2023-03-01T00:09:08;1.70;99.90
38428;DHT22;24211;49.980;19.776;2023-03-01T00:11:35;1.70;99.90
38428;DHT22;24211;49.980;19.776;2023-03-01T00:14:40;1.70;99.90
38428;DHT22;24211;49.980;19.776;2023-03-01T00:17:07;1.70;99.90
38428;DHT22;24211;49.980;19.776;2023-03-01T00:19:34;1.70;99.90
38428;DHT22;24211;49.980;19.776;2023-03-01T00:22:01;1.70;99.90
38428;DHT22;24211;49.980;19.776;2023-03-01T00:24:29;1.70;99.90
38428;DHT22;24211;49.980;19.776;2023-03-01T00:26:56;1.60;99.90
38428;DHT22;24211;49.980;19.776;2023-03-01T00:29:26;1.60;99.90
38428;DHT22;24211;49.980;19.776;2023-03-01T00:31:54;1.60;99.90
38428;DHT22;24211;49.980;19.776;2023-03-01T00:34:21;1.60;99.90
38428;DHT22;24211;49.980;19.776;2023-03-01T00:36:48;1.50;99.90
38428;DHT22;24211;49.980;19.776;2023-03-01T00:39:16;1.50;99.90
38428;DHT22;24211;49.980;19.776;2023-03-01T00:41:43;1.50;99.90
38428;DHT22;24211;49.980;19.776;2023-03-01T00:44:15;1.40;99.90
38428;DHT22;24211;49.980;19.776;2023-03-01T00:46:42;1.40;99.90
38428;DHT22;24211;49.980;19.776;2023-03-01T00:55:57;1.30;99.90
38428;DHT22;24211;49.980;19.776;2023-03-01T01:02:04;1.30;99.90
38428;DHT22;24211;49.980;19.776;2023-03-01T01:04:31;1.20;99.90
38428;DHT22;24211;49.980;19.776;2023-03-01T01:06:58;1.20;99.90
38428;DHT22;24211;49.980;19.776;2023-03-01T01:09:26;1.20;99.90
38428;DHT22;24211;49.980;19.776;2023-03-01T01:11:54;1.10;99.90
38428;DHT22;24211;49.980;19.776;2023-03-01T01:14:21;1.20;99.90
38428;DHT22;24211;49.980;19.776;2023-03-01T01:20:06;1.10;99.90
38428;DHT22;24211;49.980;19.776;2023-03-01T01:22:34;1.00;99.90
38428;DHT22;24211;49.980;19.776;2023-03-01T01:25:01;1.10;99.90
38428;DHT22;24211;49.980;19.776;2023-03-01T01:27:29;1.00;99.90
38428;DHT22;24211;49.980;19.776;2023-03-01T01:29:56;1.00;99.90
38428;DHT22;24211;49.980;19.776;2023-03-01T01:39:39;0.90;99.90
38428;DHT22;24211;49.980;19.776;2023-03-01T01:42:08;0.80;99.90
38428;DHT22;24211;49.980;19.776;2023-03-01T01:48:00;0.80;99.90
38428;DHT22;24211;49.980;19.776;2023-03-01T01:50:33;0.80;99.90
38428;DHT22;24211;49.980;19.776;2023-03-01T01:53:11;0.80;99.90
38428;DHT22;24211;49.980;19.776;2023-03-01T01:55:48;0.70;99.90
38428;DHT22;24211;49.980;19.776;2023-03-01T02:01:36;0.70;99.90
38428;DHT22;24211;49.980;19.776;2023-03-01T02:04:09;0.70;99.90
38428;DHT22;24211;49.980;19.776;2023-03-01T02:09:50;0.60;99.90
38428;DHT22;24211;49.980;19.776;2023-03-01T02:12:23;0.50;99.90
38428;DHT22;24211;49.980;19.776;2023-03-01T02:14:51;0.50;99.90
38428;DHT22;24211;49.980;19.776;2023-03-01T02:17:19;0.50;99.90
38428;DHT22;24211;49.980;19.776;2023-03-01T02:20:23;0.50;99.90
38428;DHT22;24211;49.980;19.776;2023-03-01T02:22:58;0.40;99.90
38428;DHT22;24211;49.980;19.776;2023-03-01T02:28:32;0.40;99.90
38428;DHT22;24211;49.980;19.776;2023-03-01T02:31:04;0.40;99.90
38428;DHT22;24211;49.980;19.776;2023-03-01T02:35:03;0.40;99.90
38428;DHT22;24211;49.980;19.776;2023-03-01T02:37:35;0.40;99.90
38428;DHT22;24211;49.980;19.776;2023-03-01T02:40:06;0.30;99.90
38428;DHT22;24211;49.980;19.776;2023-03-01T02:42:53;0.30;99.90
38428;DHT22;24211;49.980;19.776;2023-03-01T02:45:22;0.30;99.90
38428;DHT22;24211;49.980;19.776;2023-03-01T02:47:54;0.20;99.90
38428;DHT22;24211;49.980;19.776;2023-03-01T02:56:00;0.20;99.90
38428;DHT22;24211;49.980;19.776;2023-03-01T02:58:30;0.20;99.90
38428;DHT22;24211;49.980;19.776;2023-03-01T03:00:59;0.10;99.90
38428;DHT22;24211;49.980;19.776;2023-03-01T03:03:28;0.10;99.90
38428;DHT22;24211;49.980;19.776;2023-03-01T03:05:55;0.10;99.90
38428;DHT22;24211;49.980;19.776;2023-03-01T03:08:22;0.00;99.90
38428;DHT22;24211;49.980;19.776;2023-03-01T03:10:51;0.00;99.90
38428;DHT22;24211;49.980;19.776;2023-03-01T03:13:19;0.00;99.90
38428;DHT22;24211;49.980;19.776;2023-03-01T03:15:49;0.00;99.90
38428;DHT22;24211;49.980;19.776;2023-03-01T03:18:17;-0.10;99.90
38428;DHT22;24211;49.980;19.776;2023-03-01T03:20:44;-0.10;99.90
38428;DHT22;24211;49.980;19.776;2023-03-01T03:23:13;-0.10;99.90
38428;DHT22;24211;49.980;19.776;2023-03-01T03:25:40;-0.10;99.90
38428;DHT22;24211;49.980;19.776;2023-03-01T03:28:13;-0.10;99.90
38428;DHT22;24211;49.980;19.776;2023-03-01T03:30:43;-0.10;99.90
38428;DHT22;24211;49.980;19.776;2023-03-01T03:36:46;-0.20;99.90
38428;DHT22;24211;49.980;19.776;2023-03-01T03:39:13;-0.20;99.90
38428;DHT22;24211;49.980;19.776;2023-03-01T03:41:40;-0.20;99.90
38428;DHT22;24211;49.980;19.776;2023-03-01T03:44:08;-0.20;99.90
38428;DHT22;24211;49.980;19.776;2023-03-01T03:46:35;-0.20;99.90
38428;DHT22;24211;49.980;19.776;2023-03-01T03:49:02;-0.20;99.90
38428;DHT22;24211;49.980;19.776;2023-03-01T03:51:29;-0.30;99.90
38428;DHT22;24211;49.980;19.776;2023-03-01T03:53:56;-0.30;99.90
38428;DHT22;24211;49.980;19.776;2023-03-01T03:56:23;-0.30;99.90
38428;DHT22;24211;49.980;19.776;2023-03-01T03:58:55;-0.20;99.90
38428;DHT22;24211;49.980;19.776;2023-03-01T04:01:22;-0.30;99.90
38428;DHT22;24211;49.980;19.776;2023-03-01T04:03:50;-0.40;99.90
38428;DHT22;24211;49.980;19.776;2023-03-01T04:06:21;-0.40;99.90
38428;DHT22;24211;49.980;19.776;2023-03-01T04:08:48;-0.40;99.90
38428;DHT22;24211;49.980;19.776;2023-03-01T04:11:17;-0.40;99.90
38428;DHT22;24211;49.980;19.776;2023-03-01T04:13:56;-0.40;99.90
38428;DHT22;24211;49.980;19.776;2023-03-01T04:16:25;-0.50;99.90
38428;DHT22;24211;49.980;19.776;2023-03-01T04:18:52;-0.50;99.90
38428;DHT22;24211;49.980;19.776;2023-03-01T04:21:20;-0.50;99.90
38428;DHT22;24211;49.980;19.776;2023-03-01T04:23:48;-0.50;99.90
38428;DHT22;24211;49.980;19.776;2023-03-01T04:26:15;-0.60;99.90
38428;DHT22;24211;49.980;19.776;2023-03-01T04:28:42;-0.60;99.90
38428;DHT22;24211;49.980;19.776;2023-03-01T04:31:15;-0.60;99.90
38428;DHT22;24211;49.980;19.776;2023-03-01T04:33:53;-0.60;99.90
38428;DHT22;24211;49.980;19.776;2023-03-01T04:36:24;-0.60;99.90
38428;DHT22;24211;49.980;19.776;2023-03-01T04:38:54;-0.70;99.90
38428;DHT22;24211;49.980;19.776;2023-03-01T04:41:23;-0.70;99.90
38428;DHT22;24211;49.980;19.776;2023-03-01T04:43:52;-0.60;99.90
38428;DHT22;24211;49.980;19.776;2023-03-01T04:46:21;-0.70;99.90
38428;DHT22;24211;49.980;19.776;2023-03-01T04:48:49;-0.70;99.90
38428;DHT22;24211;49.980;19.776;2023-03-01T04:51:16;-0.70;99.90
38428;DHT22;24211;49.980;19.776;2023-03-01T04:53:45;-0.70;99.90
38428;DHT22;24211;49.980;19.776;2023-03-01T04:56:12;-0.70;99.90
38428;DHT22;24211;49.980;19.776;2023-03-01T04:58:41;-0.70;99.90
38428;DHT22;24211;49.980;19.776;2023-03-01T05:01:13;-0.70;99.90
38428;DHT22;24211;49.980;19.776;2023-03-01T05:03:43;-0.70;99.90
38428;DHT22;24211;49.980;19.776;2023-03-01T05:06:12;-0.80;99.90
38428;DHT22;24211;49.980;19.776;2023-03-01T05:08:40;-0.80;99.90
38428;DHT22;24211;49.980;19.776;2023-03-01T05:15:15;-0.80;99.90
38428;DHT22;24211;49.980;19.776;2023-03-01T05:17:42;-0.90;99.90
38428;DHT22;24211;49.980;19.776;2023-03-01T05:20:10;-0.90;99.90
38428;DHT22;24211;49.980;19.776;2023-03-01T05:22:37;-0.90;99.90
38428;DHT22;24211;49.980;19.776;2023-03-01T05:25:05;-0.90;99.90
38428;DHT22;24211;49.980;19.776;2023-03-01T05:27:34;-0.90;99.90
38428;DHT22;24211;49.980;19.776;2023-03-01T05:30:03;-1.00;99.90
38428;DHT22;24211;49.980;19.776;2023-03-01T05:32:50;-1.00;99.90
38428;DHT22;24211;49.980;19.776;2023-03-01T05:39:24;-1.00;99.90
38428;DHT22;24211;49.980;19.776;2023-03-01T05:45:25;-1.10;99.90
38428;DHT22;24211;49.980;19.776;2023-03-01T05:47:54;-1.10;99.90
38428;DHT22;24211;49.980;19.776;2023-03-01T05:50:26;-1.10;99.90
38428;DHT22;24211;49.980;19.776;2023-03-01T05:53:06;-1.00;99.90
38428;DHT22;24211;49.980;19.776;2023-03-01T05:55:37;-1.00;99.90
38428;DHT22;24211;49.980;19.776;2023-03-01T06:01:48;-1.10;99.90
38428;DHT22;24211;49.980;19.776;2023-03-01T06:04:16;-1.00;99.90
38428;DHT22;24211;49.980;19.776;2023-03-01T06:06:43;-1.00;99.90
38428;DHT22;24211;49.980;19.776;2023-03-01T06:09:10;-1.00;99.90
38428;DHT22;24211;49.980;19.776;2023-03-01T06:11:38;-1.00;99.90
38428;DHT22;24211;49.980;19.776;2023-03-01T06:14:06;-1.00;99.90
38428;DHT22;24211;49.980;19.776;2023-03-01T06:16:34;-0.90;99.90
38428;DHT22;24211;49.980;19.776;2023-03-01T06:19:01;-0.90;99.90
38428;DHT22;24211;49.980;19.776;2023-03-01T06:21:30;-0.80;99.90
38428;DHT22;24211;49.980;19.776;2023-03-01T06:23:57;-0.80;99.90
38428;DHT22;24211;49.980;19.776;2023-03-01T06:26:24;-0.70;99.90
38428;DHT22;24211;49.980;19.776;2023-03-01T06:28:51;-0.70;99.90
38428;DHT22;24211;49.980;19.776;2023-03-01T06:31:19;-0.60;99.90
38428;DHT22;24211;49.980;19.776;2023-03-01T06:33:46;-0.60;99.90
38428;DHT22;24211;49.980;19.776;2023-03-01T06:36:13;-0.50;99.90
38428;DHT22;24211;49.980;19.776;2023-03-01T06:38:40;-0.50;99.90
38428;DHT22;24211;49.980;19.776;2023-03-01T06:41:07;-0.40;99.90
38428;DHT22;24211;49.980;19.776;2023-03-01T06:43:34;-0.40;99.90
38428;DHT22;24211;49.980;19.776;2023-03-01T06:46:05;-0.30;99.90
38428;DHT22;24211;49.980;19.776;2023-03-01T06:48:34;-0.20;99.90
38428;DHT22;24211;49.980;19.776;2023-03-01T06:51:03;-0.20;99.90
38428;DHT22;24211;49.980;19.776;2023-03-01T06:53:31;-0.10;99.90
38428;DHT22;24211;49.980;19.776;2023-03-01T06:55:58;-0.10;99.90
38428;DHT22;24211;49.980;19.776;2023-03-01T06:58:26;0.00;99.90
38428;DHT22;24211;49.980;19.776;2023-03-01T07:05:03;0.10;99.90
38428;DHT22;24211;49.980;19.776;2023-03-01T07:07:30;0.20;99.90
38428;DHT22;24211;49.980;19.776;2023-03-01T07:09:58;0.20;99.90
38428;DHT22;24211;49.980;19.776;2023-03-01T07:12:25;0.30;99.90
38428;DHT22;24211;49.980;19.776;2023-03-01T07:14:52;0.40;99.90
38428;DHT22;24211;49.980;19.776;2023-03-01T07:17:19;0.40;99.90
38428;DHT22;24211;49.980;19.776;2023-03-01T07:19:46;0.50;99.90
38428;DHT22;24211;49.980;19.776;2023-03-01T07:22:14;0.60;99.90
38428;DHT22;24211;49.980;19.776;2023-03-01T07:24:42;0.70;99.90
38428;DHT22;24211;49.980;19.776;2023-03-01T07:27:11;0.80;99.90
38428;DHT22;24211;49.980;19.776;2023-03-01T07:30:39;0.90;99.90
38428;DHT22;24211;49.980;19.776;2023-03-01T07:33:07;1.00;99.90
38428;DHT22;24211;49.980;19.776;2023-03-01T07:35:34;1.10;99.90
38428;DHT22;24211;49.980;19.776;2023-03-01T07:38:02;1.20;99.90
38428;DHT22;24211;49.980;19.776;2023-03-01T07:40:29;1.30;99.90
38428;DHT22;24211;49.980;19.776;2023-03-01T07:42:57;1.40;99.90
38428;DHT22;24211;49.980;19.776;2023-03-01T07:45:29;1.50;99.90
38428;DHT22;24211;49.980;19.776;2023-03-01T07:47:56;1.60;99.90
38428;DHT22;24211;49.980;19.776;2023-03-01T07:50:25;1.70;99.90
38428;DHT22;24211;49.980;19.776;2023-03-01T07:52:55;1.70;99.90
38428;DHT22;24211;49.980;19.776;2023-03-01T07:55:23;1.90;99.90
38428;DHT22;24211;49.980;19.776;2023-03-01T07:57:50;1.90;99.90
38428;DHT22;24211;49.980;19.776;2023-03-01T08:00:17;2.00;99.90
38428;DHT22;24211;49.980;19.776;2023-03-01T08:02:45;2.10;99.90
38428;DHT22;24211;49.980;19.776;2023-03-01T08:05:12;2.20;99.90
38428;DHT22;24211;49.980;19.776;2023-03-01T08:07:39;2.30;99.90
38428;DHT22;24211;49.980;19.776;2023-03-01T08:10:07;2.40;99.90
38428;DHT22;24211;49.980;19.776;2023-03-01T08:12:34;2.50;99.90
38428;DHT22;24211;49.980;19.776;2023-03-01T08:15:03;2.60;99.90
38428;DHT22;24211;49.980;19.776;2023-03-01T08:17:33;2.70;99.90
38428;DHT22;24211;49.980;19.776;2023-03-01T08:20:03;2.90;99.90
38428;DHT22;24211;49.980;19.776;2023-03-01T08:22:33;3.00;99.90
38428;DHT22;24211;49.980;19.776;2023-03-01T08:25:01;3.10;99.90
38428;DHT22;24211;49.980;19.776;2023-03-01T08:27:29;3.20;99.90
38428;DHT22;24211;49.980;19.776;2023-03-01T08:29:56;3.30;99.90
38428;DHT22;24211;49.980;19.776;2023-03-01T08:32:24;3.40;99.90
38428;DHT22;24211;49.980;19.776;2023-03-01T08:34:51;3.60;99.90
38428;DHT22;24211;49.980;19.776;2023-03-01T08:37:18;3.70;99.90
38428;DHT22;24211;49.980;19.776;2023-03-01T08:39:45;3.80;99.90
38428;DHT22;24211;49.980;19.776;2023-03-01T08:42:14;4.10;99.90
38428;DHT22;24211;49.980;19.776;2023-03-01T08:44:41;4.20;99.90
38428;DHT22;24211;49.980;19.776;2023-03-01T08:47:08;4.30;99.90
38428;DHT22;24211;49.980;19.776;2023-03-01T08:49:35;4.40;99.90
38428;DHT22;24211;49.980;19.776;2023-03-01T08:52:02;4.50;99.90
38428;DHT22;24211;49.980;19.776;2023-03-01T08:54:30;4.60;99.90
38428;DHT22;24211;49.980;19.776;2023-03-01T08:56:57;4.80;99.90
38428;DHT22;24211;49.980;19.776;2023-03-01T08:59:25;5.10;99.90
38428;DHT22;24211;49.980;19.776;2023-03-01T09:01:53;5.20;99.90
38428;DHT22;24211;49.980;19.776;2023-03-01T09:04:20;5.40;99.90
38428;DHT22;24211;49.980;19.776;2023-03-01T09:06:48;5.50;99.90
38428;DHT22;24211;49.980;19.776;2023-03-01T09:09:16;5.70;99.90
38428;DHT22;24211;49.980;19.776;2023-03-01T09:11:45;5.80;99.90
38428;DHT22;24211;49.980;19.776;2023-03-01T09:14:13;5.90;99.90
38428;DHT22;24211;49.980;19.776;2023-03-01T09:16:41;6.00;99.90
38428;DHT22;24211;49.980;19.776;2023-03-01T09:19:08;6.30;99.90
38428;DHT22;24211;49.980;19.776;2023-03-01T09:21:37;6.30;99.90
38428;DHT22;24211;49.980;19.776;2023-03-01T09:24:13;6.30;99.90
38428;DHT22;24211;49.980;19.776;2023-03-01T09:26:42;6.40;99.90
38428;DHT22;24211;49.980;19.776;2023-03-01T09:29:11;6.60;99.90
38428;DHT22;24211;49.980;19.776;2023-03-01T09:31:39;6.80;99.90
38428;DHT22;24211;49.980;19.776;2023-03-01T09:34:06;7.00;99.90
38428;DHT22;24211;49.980;19.776;2023-03-01T09:36:34;7.10;99.90
38428;DHT22;24211;49.980;19.776;2023-03-01T09:42:28;7.20;99.90
38428;DHT22;24211;49.980;19.776;2023-03-01T09:45:06;7.20;99.90
38428;DHT22;24211;49.980;19.776;2023-03-01T09:50:54;7.30;99.90
38428;DHT22;24211;49.980;19.776;2023-03-01T09:53:27;7.30;99.90
38428;DHT22;24211;49.980;19.776;2023-03-01T09:56:12;7.30;99.90
38428;DHT22;24211;49.980;19.776;2023-03-01T10:02:05;7.50;99.90
38428;DHT22;24211;49.980;19.776;2023-03-01T10:05:03;7.40;99.90
38428;DHT22;24211;49.980;19.776;2023-03-01T10:08:19;7.60;99.90
38428;DHT22;24211;49.980;19.776;2023-03-01T10:10:56;7.70;99.90
38428;DHT22;24211;49.980;19.776;2023-03-01T10:13:36;7.80;99.90
38428;DHT22;24211;49.980;19.776;2023-03-01T10:16:16;7.80;99.90
38428;DHT22;24211;49.980;19.776;2023-03-01T10:18:53;8.10;99.90
38428;DHT22;24211;49.980;19.776;2023-03-01T10:21:45;8.00;99.90
38428;DHT22;24211;49.980;19.776;2023-03-01T10:24:18;8.00;99.90
38428;DHT22;24211;49.980;19.776;2023-03-01T10:26:58;8.10;99.90
38428;DHT22;24211;49.980;19.776;2023-03-01T10:30:05;8.10;99.90
38428;DHT22;24211;49.980;19.776;2023-03-01T10:32:39;8.30;99.90
38428;DHT22;24211;49.980;19.776;2023-03-01T10:35:18;8.50;99.90
38428;DHT22;24211;49.980;19.776;2023-03-01T10:38:08;8.60;99.90
38428;DHT22;24211;49.980;19.776;2023-03-01T10:40:51;8.70;99.90
38428;DHT22;24211;49.980;19.776;2023-03-01T10:43:31;8.70;99.90
38428;DHT22;24211;49.980;19.776;2023-03-01T10:46:28;8.90;99.90
38428;DHT22;24211;49.980;19.776;2023-03-01T10:49:19;9.00;99.90
38428;DHT22;24211;49.980;19.776;2023-03-01T10:51:50;9.10;99.90
38428;DHT22;24211;49.980;19.776;2023-03-01T10:54:25;9.20;99.90
38428;DHT22;24211;49.980;19.776;2023-03-01T10:57:04;9.30;99.90
38428;DHT22;24211;49.980;19.776;2023-03-01T10:59:35;9.40;99.90
38428;DHT22;24211;49.980;19.776;2023-03-01T11:02:17;9.50;99.90
38428;DHT22;24211;49.980;19.776;2023-03-01T11:07:57;9.70;99.90
38428;DHT22;24211;49.980;19.776;2023-03-01T11:10:35;9.60;99.90
38428;DHT22;24211;49.980;19.776;2023-03-01T11:13:18;9.70;99.90
38428;DHT22;24211;49.980;19.776;2023-03-01T11:16:06;9.90;99.90
38428;DHT22;24211;49.980;19.776;2023-03-01T11:18:39;9.90;99.90
38428;DHT22;24211;49.980;19.776;2023-03-01T11:21:16;10.00;99.90
38428;DHT22;24211;49.980;19.776;2023-03-01T11:23:45;10.20;99.90
38428;DHT22;24211;49.980;19.776;2023-03-01T11:26:15;10.20;99.90
38428;DHT22;24211;49.980;19.776;2023-03-01T11:28:55;10.10;99.90
38428;DHT22;24211;49.980;19.776;2023-03-01T11:31:28;10.00;99.90
38428;DHT22;24211;49.980;19.776;2023-03-01T11:34:12;10.10;99.90
38428;DHT22;24211;49.980;19.776;2023-03-01T11:36:53;10.30;99.90
38428;DHT22;24211;49.980;19.776;2023-03-01T11:40:04;10.40;99.90
38428;DHT22;24211;49.980;19.776;2023-03-01T11:42:47;10.40;99.90
38428;DHT22;24211;49.980;19.776;2023-03-01T11:45:45;10.20;99.90
38428;DHT22;24211;49.980;19.776;2023-03-01T11:48:19;10.30;99.90
38428;DHT22;24211;49.980;19.776;2023-03-01T11:51:42;10.10;94.80
38428;DHT22;24211;49.980;19.776;2023-03-01T12:08:57;10.30;99.90
38428;DHT22;24211;49.980;19.776;2023-03-01T12:20:15;10.40;99.90
38428;DHT22;24211;49.980;19.776;2023-03-01T12:26:16;10.70;99.90
38428;DHT22;24211;49.980;19.776;2023-03-01T12:33:34;10.80;99.90
38428;DHT22;24211;49.980;19.776;2023-03-01T12:40:02;10.80;99.90
38428;DHT22;24211;49.980;19.776;2023-03-01T12:43:05;10.90;99.90
38428;DHT22;24211;49.980;19.776;2023-03-01T12:48:47;10.60;99.90
38428;DHT22;24211;49.980;19.776;2023-03-01T12:51:38;10.60;95.40
38428;DHT22;24211;49.980;19.776;2023-03-01T12:54:15;10.90;99.90
38428;DHT22;24211;49.980;19.776;2023-03-01T12:56:48;11.20;99.90
38428;DHT22;24211;49.980;19.776;2023-03-01T12:59:35;11.30;99.90
38428;DHT22;24211;49.980;19.776;2023-03-01T13:05:25;11.30;99.90
38428;DHT22;24211;49.980;19.776;2023-03-01T13:08:31;10.30;77.20
38428;DHT22;24211;49.980;19.776;2023-03-01T13:14:46;10.60;99.90
38428;DHT22;24211;49.980;19.776;2023-03-01T13:17:31;10.50;99.90
38428;DHT22;24211;49.980;19.776;2023-03-01T13:19:59;10.90;99.90
38428;DHT22;24211;49.980;19.776;2023-03-01T13:22:30;10.40;90.50
38428;DHT22;24211;49.980;19.776;2023-03-01T13:25:16;10.40;99.90
38428;DHT22;24211;49.980;19.776;2023-03-01T13:27:46;10.30;93.00
38428;DHT22;24211;49.980;19.776;2023-03-01T13:35:56;11.60;99.90
38428;DHT22;24211;49.980;19.776;2023-03-01T13:41:16;11.50;96.60
38428;DHT22;24211;49.980;19.776;2023-03-01T13:47:05;10.40;93.40
38428;DHT22;24211;49.980;19.776;2023-03-01T13:50:01;10.30;99.90
38428;DHT22;24211;49.980;19.776;2023-03-01T13:57:48;10.90;99.90
38428;DHT22;24211;49.980;19.776;2023-03-01T14:03:08;11.10;99.90
38428;DHT22;24211;49.980;19.776;2023-03-01T14:05:42;11.00;91.00
38428;DHT22;24211;49.980;19.776;2023-03-01T14:08:23;10.30;94.90
38428;DHT22;24211;49.980;19.776;2023-03-01T14:13:54;10.80;95.60
38428;DHT22;24211;49.980;19.776;2023-03-01T14:19:30;9.70;96.60
38428;DHT22;24211;49.980;19.776;2023-03-01T14:22:23;10.50;99.90
38428;DHT22;24211;49.980;19.776;2023-03-01T14:24:55;11.00;99.90
38428;DHT22;24211;49.980;19.776;2023-03-01T14:27:37;11.10;99.90
38428;DHT22;24211;49.980;19.776;2023-03-01T14:30:21;10.60;90.20
38428;DHT22;24211;49.980;19.776;2023-03-01T14:33:00;10.50;99.90
38428;DHT22;24211;49.980;19.776;2023-03-01T14:35:35;10.80;99.90
38428;DHT22;24211;49.980;19.776;2023-03-01T14:38:03;10.80;99.90
38428;DHT22;24211;49.980;19.776;2023-03-01T14:40:34;10.40;86.00
38428;DHT22;24211;49.980;19.776;2023-03-01T14:43:10;10.30;99.90
38428;DHT22;24211;49.980;19.776;2023-03-01T14:45:47;10.40;91.20
38428;DHT22;24211;49.980;19.776;2023-03-01T14:48:17;9.80;92.40
38428;DHT22;24211;49.980;19.776;2023-03-01T14:50:45;9.80;99.90
38428;DHT22;24211;49.980;19.776;2023-03-01T14:53:22;9.50;94.80
38428;DHT22;24211;49.980;19.776;2023-03-01T14:55:54;9.60;99.90
38428;DHT22;24211;49.980;19.776;2023-03-01T14:58:24;10.20;99.90
38428;DHT22;24211;49.980;19.776;2023-03-01T15:01:01;10.50;99.90
38428;DHT22;24211;49.980;19.776;2023-03-01T15:03:37;10.70;99.90
38428;DHT22;24211;49.980;19.776;2023-03-01T15:06:08;10.70;99.90
38428;DHT22;24211;49.980;19.776;2023-03-01T15:08:42;9.60;89.80
38428;DHT22;24211;49.980;19.776;2023-03-01T15:13:41;9.60;99.90
38428;DHT22;24211;49.980;19.776;2023-03-01T15:16:15;9.30;90.90
38428;DHT22;24211;49.980;19.776;2023-03-01T15:18:48;9.60;99.90
38428;DHT22;24211;49.980;19.776;2023-03-01T15:21:26;9.60;99.90
38428;DHT22;24211;49.980;19.776;2023-03-01T15:24:05;9.70;99.90
38428;DHT22;24211;49.980;19.776;2023-03-01T15:26:43;9.30;92.80
38428;DHT22;24211;49.980;19.776;2023-03-01T15:29:18;9.30;99.70
38428;DHT22;24211;49.980;19.776;2023-03-01T15:31:57;9.40;99.90
38428;DHT22;24211;49.980;19.776;2023-03-01T15:34:37;9.10;91.80
38428;DHT22;24211;49.980;19.776;2023-03-01T15:37:15;9.10;99.90
38428;DHT22;24211;49.980;19.776;2023-03-01T15:40:02;9.20;99.90
38428;DHT22;24211;49.980;19.776;2023-03-01T15:42:44;8.80;96.70
38428;DHT22;24211;49.980;19.776;2023-03-01T15:47:49;8.40;99.90
38428;DHT22;24211;49.980;19.776;2023-03-01T15:50:26;8.40;99.90
38428;DHT22;24211;49.980;19.776;2023-03-01T15:52:56;8.50;99.90
38428;DHT22;24211;49.980;19.776;2023-03-01T15:55:29;7.70;94.70
38428;DHT22;24211;49.980;19.776;2023-03-01T15:58:12;7.50;95.20
38428;DHT22;24211;49.980;19.776;2023-03-01T16:00:42;8.10;99.90
38428;DHT22;24211;49.980;19.776;2023-03-01T16:03:30;8.20;99.90
38428;DHT22;24211;49.980;19.776;2023-03-01T16:05:57;8.40;99.90
38428;DHT22;24211;49.980;19.776;2023-03-01T16:08:24;8.40;99.90
38428;DHT22;24211;49.980;19.776;2023-03-01T16:10:51;8.40;99.90
38428;DHT22;24211;49.980;19.776;2023-03-01T16:13:20;8.60;99.90
38428;DHT22;24211;49.980;19.776;2023-03-01T16:15:48;8.40;99.90
38428;DHT22;24211;49.980;19.776;2023-03-01T16:18:15;8.20;98.00
38428;DHT22;24211;49.980;19.776;2023-03-01T16:20:42;7.90;99.90
38428;DHT22;24211;49.980;19.776;2023-03-01T16:23:10;7.70;99.90
38428;DHT22;24211;49.980;19.776;2023-03-01T16:25:38;7.80;99.90
38428;DHT22;24211;49.980;19.776;2023-03-01T16:28:06;7.70;99.90
38428;DHT22;24211;49.980;19.776;2023-03-01T16:30:38;7.60;99.90
38428;DHT22;24211;49.980;19.776;2023-03-01T16:33:06;7.70;99.90
38428;DHT22;24211;49.980;19.776;2023-03-01T16:35:53;7.90;99.90
38428;DHT22;24211;49.980;19.776;2023-03-01T16:38:21;8.10;99.90
38428;DHT22;24211;49.980;19.776;2023-03-01T16:40:50;8.10;99.90
38428;DHT22;24211;49.980;19.776;2023-03-01T16:43:18;8.10;99.90
38428;DHT22;24211;49.980;19.776;2023-03-01T16:45:46;8.10;99.90
38428;DHT22;24211;49.980;19.776;2023-03-01T16:48:13;8.00;99.90
38428;DHT22;24211;49.980;19.776;2023-03-01T16:50:41;7.80;99.90
38428;DHT22;24211;49.980;19.776;2023-03-01T16:53:08;7.70;99.90
38428;DHT22;24211;49.980;19.776;2023-03-01T16:55:35;7.60;99.90
38428;DHT22;24211;49.980;19.776;2023-03-01T16:58:03;7.50;99.90
38428;DHT22;24211;49.980;19.776;2023-03-01T17:00:31;7.30;99.90
38428;DHT22;24211;49.980;19.776;2023-03-01T17:02:58;7.20;99.90
38428;DHT22;24211;49.980;19.776;2023-03-01T17:05:26;7.20;99.90
38428;DHT22;24211;49.980;19.776;2023-03-01T17:07:53;7.30;99.90
38428;DHT22;24211;49.980;19.776;2023-03-01T17:10:22;7.30;99.90
38428;DHT22;24211;49.980;19.776;2023-03-01T17:12:49;7.20;99.90
38428;DHT22;24211;49.980;19.776;2023-03-01T17:15:17;7.10;99.90
38428;DHT22;24211;49.980;19.776;2023-03-01T17:17:44;7.10;99.90
38428;DHT22;24211;49.980;19.776;2023-03-01T17:20:12;7.10;99.90
38428;DHT22;24211;49.980;19.776;2023-03-01T17:22:39;7.00;99.90
38428;DHT22;24211;49.980;19.776;2023-03-01T17:25:09;7.00;99.90
38428;DHT22;24211;49.980;19.776;2023-03-01T17:27:37;7.00;99.90
38428;DHT22;24211;49.980;19.776;2023-03-01T17:30:10;7.00;99.90
38428;DHT22;24211;49.980;19.776;2023-03-01T17:32:38;6.90;99.90
38428;DHT22;24211;49.980;19.776;2023-03-01T17:35:07;6.90;99.90
38428;DHT22;24211;49.980;19.776;2023-03-01T17:37:34;6.90;99.90
38428;DHT22;24211;49.980;19.776;2023-03-01T17:40:03;6.80;99.90
38428;DHT22;24211;49.980;19.776;2023-03-01T17:42:32;6.80;99.90
38428;DHT22;24211;49.980;19.776;2023-03-01T17:44:59;6.70;99.90
38428;DHT22;24211;49.980;19.776;2023-03-01T17:47:27;6.70;99.90
38428;DHT22;24211;49.980;19.776;2023-03-01T17:49:56;6.60;99.90
38428;DHT22;24211;49.980;19.776;2023-03-01T17:52:23;6.50;99.90
38428;DHT22;24211;49.980;19.776;2023-03-01T17:54:50;6.50;99.90
38428;DHT22;24211;49.980;19.776;2023-03-01T17:57:17;6.50;99.90
38428;DHT22;24211;49.980;19.776;2023-03-01T17:59:44;6.40;99.90
38428;DHT22;24211;49.980;19.776;2023-03-01T18:02:11;6.40;99.90
38428;DHT22;24211;49.980;19.776;2023-03-01T18:04:39;6.30;99.90
38428;DHT22;24211;49.980;19.776;2023-03-01T18:07:09;6.30;99.90
38428;DHT22;24211;49.980;19.776;2023-03-01T18:09:37;6.30;99.90
38428;DHT22;24211;49.980;19.776;2023-03-01T18:12:04;6.20;99.90
38428;DHT22;24211;49.980;19.776;2023-03-01T18:14:31;6.20;99.90
38428;DHT22;24211;49.980;19.776;2023-03-01T18:17:00;6.20;99.90
38428;DHT22;24211;49.980;19.776;2023-03-01T18:19:32;6.10;99.90
38428;DHT22;24211;49.980;19.776;2023-03-01T18:21:59;6.00;99.90
38428;DHT22;24211;49.980;19.776;2023-03-01T18:24:28;6.00;99.90
38428;DHT22;24211;49.980;19.776;2023-03-01T18:26:55;6.00;99.90
38428;DHT22;24211;49.980;19.776;2023-03-01T18:29:22;5.90;99.90